createdAt,value
2018-04-28T00:00:57.512Z,9.2
2018-04-28T00:01:56.431Z,9.2
2018-04-28T00:02:55.850Z,9.2
2018-04-28T00:03:54.777Z,9.2
2018-04-28T00:04:53.881Z,9.2
2018-04-28T00:05:53.302Z,9.2
2018-04-28T00:06:52.027Z,9.2
2018-04-28T00:07:51.661Z,9.2
2018-04-28T00:08:50.365Z,9.2
2018-04-28T00:09:49.686Z,9.2
2018-04-28T00:10:48.607Z,9.2
2018-04-28T00:11:47.933Z,9.3
2018-04-28T00:12:47.161Z,9.3
2018-04-28T00:13:46.371Z,9.3
2018-04-28T00:15:44.476Z,9.4
2018-04-28T00:16:43.890Z,9.4
2018-04-28T00:17:42.700Z,9.4
2018-04-28T00:18:42.035Z,9.4
2018-04-28T00:19:40.856Z,9.4
2018-04-28T00:20:40.065Z,9.5
2018-04-28T00:21:39.381Z,9.5
2018-04-28T00:22:38.476Z,9.5
2018-04-28T00:24:36.670Z,9.5
2018-04-28T00:25:35.766Z,9.6
2018-04-28T00:26:34.984Z,9.6
2018-04-28T00:27:34.082Z,9.6
2018-04-28T00:28:33.457Z,9.7
2018-04-28T00:29:32.568Z,9.7
2018-04-28T00:30:31.669Z,9.7
2018-04-28T00:31:30.995Z,9.7
2018-04-28T00:32:29.704Z,9.8
2018-04-28T00:33:29.024Z,9.8
2018-04-28T00:34:28.236Z,9.8
2018-04-28T00:35:27.448Z,9.9
2018-04-28T00:36:26.262Z,9.9
2018-04-28T00:37:25.685Z,9.9
2018-04-28T00:38:24.904Z,9.9
2018-04-28T00:39:23.614Z,9.9
2018-04-28T00:40:23.436Z,10
2018-04-28T00:41:22.246Z,10
2018-04-28T00:42:21.451Z,10
2018-04-28T00:43:20.883Z,10
2018-04-28T00:44:19.479Z,10.1
2018-04-28T00:45:18.693Z,10.1
2018-04-28T00:46:18.104Z,10.1
2018-04-28T00:47:16.930Z,10.1
2018-04-28T00:48:16.417Z,10.1
2018-04-28T00:49:15.343Z,10.1
2018-04-28T00:50:14.558Z,10.1
2018-04-28T00:51:14.071Z,10.1
2018-04-28T00:52:13.181Z,10.1
2018-04-28T00:52:43.409Z,10.1
2018-04-28T00:53:13.646Z,10.1
2018-04-28T00:54:11.051Z,10.1
2018-04-28T00:55:10.145Z,10.1
2018-04-28T00:56:09.463Z,10.1
2018-04-28T00:57:08.777Z,10.1
2018-04-28T00:58:07.977Z,10
2018-04-28T00:59:06.573Z,10
2018-04-28T01:00:05.986Z,10
2018-04-28T01:01:04.984Z,10
2018-04-28T01:02:04.305Z,10
2018-04-28T01:04:02.525Z,10
2018-04-28T01:05:01.844Z,10
2018-04-28T01:06:01.065Z,10
2018-04-28T01:07:00.382Z,9.9
2018-04-28T01:07:59.196Z,10
2018-04-28T01:08:58.519Z,10
2018-04-28T01:09:57.830Z,9.9
2018-04-28T01:10:56.541Z,9.9
2018-04-28T01:11:55.973Z,9.9
2018-04-28T01:12:55.170Z,9.9
2018-04-28T01:13:54.084Z,9.9
2018-04-28T01:14:53.500Z,9.9
2018-04-28T01:15:52.199Z,9.9
2018-04-28T01:16:51.694Z,9.9
2018-04-28T01:17:50.786Z,9.9
2018-04-28T01:18:50.209Z,9.8
2018-04-28T01:19:48.902Z,9.8
2018-04-28T01:20:48.111Z,9.8
2018-04-28T01:21:47.103Z,9.8
2018-04-28T01:22:46.313Z,9.8
2018-04-28T01:23:45.627Z,9.8
2018-04-28T01:24:45.052Z,9.8
2018-04-28T01:25:15.176Z,9.8
2018-04-28T01:25:45.814Z,9.8
2018-04-28T01:26:43.216Z,9.8
2018-04-28T01:27:42.532Z,9.7
2018-04-28T01:28:41.735Z,9.7
2018-04-28T01:29:40.566Z,9.7
2018-04-28T01:30:39.998Z,9.7
2018-04-28T01:31:38.708Z,9.7
2018-04-28T01:32:09.452Z,9.7
2018-04-28T01:32:39.582Z,9.7
2018-04-28T01:33:10.215Z,9.7
2018-04-28T01:33:40.733Z,9.7
2018-04-28T01:34:11.365Z,9.7
2018-04-28T01:34:41.995Z,9.6
2018-04-28T01:35:12.520Z,9.6
2018-04-28T01:36:34.374Z,9.6
2018-04-28T01:37:33.691Z,9.6
2018-04-28T01:38:33.001Z,9.6
2018-04-28T01:39:32.319Z,9.6
2018-04-28T01:40:31.141Z,9.7
2018-04-28T01:41:30.569Z,9.7
2018-04-28T01:42:29.380Z,9.7
2018-04-28T01:43:28.486Z,9.7
2018-04-28T01:44:27.909Z,9.7
2018-04-28T01:45:27.119Z,9.7
2018-04-28T01:45:57.753Z,9.7
2018-04-28T01:46:28.379Z,9.7
2018-04-28T01:47:25.286Z,9.7
2018-04-28T01:48:24.495Z,9.7
2018-04-28T01:49:23.197Z,9.7
2018-04-28T01:50:22.799Z,9.7
2018-04-28T01:51:22.014Z,9.6
2018-04-28T01:52:21.228Z,9.6
2018-04-28T01:53:20.431Z,9.6
2018-04-28T01:54:19.026Z,9.6
2018-04-28T01:55:18.355Z,9.6
2018-04-28T01:56:17.681Z,9.6
2018-04-28T01:57:16.998Z,9.6
2018-04-28T01:58:15.819Z,9.6
2018-04-28T01:59:15.024Z,9.6
2018-04-28T02:00:14.447Z,9.6
2018-04-28T02:01:13.255Z,9.6
2018-04-28T02:02:12.460Z,9.6
2018-04-28T02:03:11.667Z,9.6
2018-04-28T02:04:10.983Z,9.6
2018-04-28T02:05:09.796Z,9.6
2018-04-28T02:06:09.296Z,9.6
2018-04-28T02:07:08.109Z,9.6
2018-04-28T02:08:07.215Z,9.6
2018-04-28T02:10:05.590Z,9.6
2018-04-28T02:11:04.803Z,9.6
2018-04-28T02:12:03.909Z,9.6
2018-04-28T02:13:03.010Z,9.5
2018-04-28T02:13:33.653Z,9.5
2018-04-28T02:14:04.179Z,9.5
2018-04-28T02:14:34.919Z,9.5
2018-04-28T02:16:00.410Z,9.5
2018-04-28T02:16:59.727Z,9.5
2018-04-28T02:17:59.040Z,9.5
2018-04-28T02:18:57.972Z,9.5
2018-04-28T02:19:57.287Z,9.5
2018-04-28T02:20:56.596Z,9.5
2018-04-28T02:21:55.411Z,9.5
2018-04-28T02:22:54.617Z,9.5
2018-04-28T02:23:53.942Z,9.5
2018-04-28T02:24:52.642Z,9.5
2018-04-28T02:25:51.957Z,9.5
2018-04-28T02:26:51.074Z,9.5
2018-04-28T02:27:50.393Z,9.5
2018-04-28T02:29:48.600Z,9.5
2018-04-28T02:30:47.919Z,9.5
2018-04-28T02:31:46.756Z,9.4
2018-04-28T02:33:45.028Z,9.4
2018-04-28T02:34:44.139Z,9.4
2018-04-28T02:35:43.699Z,9.4
2018-04-28T02:36:42.413Z,9.4
2018-04-28T02:37:41.891Z,9.4
2018-04-28T02:38:41.002Z,9.4
2018-04-28T02:39:39.825Z,9.4
2018-04-28T02:40:39.160Z,9.4
2018-04-28T02:41:38.583Z,9.4
2018-04-28T02:42:37.509Z,9.4
2018-04-28T02:43:36.833Z,9.4
2018-04-28T02:44:35.805Z,9.4
2018-04-28T02:45:35.169Z,9.4
2018-04-28T02:46:34.201Z,9.4
2018-04-28T02:47:33.424Z,9.4
2018-04-28T02:48:32.246Z,9.4
2018-04-28T02:49:31.452Z,9.4
2018-04-28T02:50:30.769Z,9.4
2018-04-28T02:51:29.811Z,9.4
2018-04-28T02:52:29.238Z,9.4
2018-04-28T02:53:27.956Z,9.4
2018-04-28T02:54:27.411Z,9.4
2018-04-28T02:55:26.417Z,9.4
2018-04-28T02:56:25.748Z,9.4
2018-04-28T02:57:24.969Z,9.4
2018-04-28T02:58:23.794Z,9.4
2018-04-28T02:59:23.004Z,9.4
2018-04-28T02:59:53.750Z,9.4
2018-04-28T03:00:23.883Z,9.4
2018-04-28T03:01:21.102Z,9.4
2018-04-28T03:02:20.316Z,9.4
2018-04-28T03:03:19.641Z,9.4
2018-04-28T03:04:18.854Z,9.4
2018-04-28T03:05:18.089Z,9.4
2018-04-28T03:06:16.934Z,9.4
2018-04-28T03:07:16.263Z,9.4
2018-04-28T03:08:15.364Z,9.4
2018-04-28T03:09:14.296Z,9.4
2018-04-28T03:09:44.829Z,9.4
2018-04-28T03:11:12.947Z,9.4
2018-04-28T03:12:11.774Z,9.4
2018-04-28T03:13:11.112Z,9.4
2018-04-28T03:14:10.323Z,9.4
2018-04-28T03:15:09.147Z,9.4
2018-04-28T03:16:08.469Z,9.4
2018-04-28T03:17:07.675Z,9.4
2018-04-28T03:18:06.883Z,9.4
2018-04-28T03:19:05.802Z,9.4
2018-04-28T03:20:05.196Z,9.4
2018-04-28T03:21:04.127Z,9.4
2018-04-28T03:22:03.459Z,9.4
2018-04-28T03:23:02.275Z,9.4
2018-04-28T03:24:01.585Z,9.4
2018-04-28T03:25:00.793Z,9.4
2018-04-28T03:25:59.713Z,9.4
2018-04-28T03:27:57.913Z,9.3
2018-04-28T03:28:57.119Z,9.4
2018-04-28T03:29:56.441Z,9.4
2018-04-28T03:30:55.651Z,9.4
2018-04-28T03:31:54.986Z,9.4
2018-04-28T03:32:54.094Z,9.3
2018-04-28T03:33:52.917Z,9.4
2018-04-28T03:34:52.121Z,9.4
2018-04-28T03:35:51.444Z,9.4
2018-04-28T03:36:50.048Z,9.4
2018-04-28T03:37:49.765Z,9.4
2018-04-28T03:38:48.972Z,9.4
2018-04-28T03:39:47.910Z,9.4
2018-04-28T03:40:47.203Z,9.4
2018-04-28T03:41:46.136Z,9.4
2018-04-28T03:42:45.353Z,9.3
2018-04-28T03:43:44.643Z,9.3
2018-04-28T03:44:43.456Z,9.3
2018-04-28T03:45:42.779Z,9.3
2018-04-28T03:46:41.880Z,9.3
2018-04-28T03:47:41.206Z,9.3
2018-04-28T03:48:40.147Z,9.3
2018-04-28T03:49:39.572Z,9.3
2018-04-28T03:50:09.582Z,9.3
2018-04-28T03:50:39.994Z,9.3
2018-04-28T03:51:10.412Z,9.3
2018-04-28T03:51:41.145Z,9.3
2018-04-28T03:52:11.462Z,9.3
2018-04-28T03:53:36.511Z,9.3
2018-04-28T03:55:34.309Z,9.3
2018-04-28T03:56:33.252Z,9.3
2018-04-28T03:57:32.691Z,9.3
2018-04-28T03:58:31.402Z,9.3
2018-04-28T03:59:30.716Z,9.2
2018-04-28T04:00:30.044Z,9.2
2018-04-28T04:01:28.768Z,9.2
2018-04-28T04:01:59.190Z,9.2
2018-04-28T04:03:27.297Z,9.2
2018-04-28T04:04:26.394Z,9.2
2018-04-28T04:05:25.498Z,9.2
2018-04-28T04:06:24.822Z,9.2
2018-04-28T04:07:24.139Z,9.2
2018-04-28T04:08:22.728Z,9.2
2018-04-28T04:09:22.011Z,9.2
2018-04-28T04:10:21.430Z,9.2
2018-04-28T04:11:20.743Z,9.1
2018-04-28T04:12:19.558Z,9.1
2018-04-28T04:13:18.879Z,9.1
2018-04-28T04:14:17.693Z,9.1
2018-04-28T04:15:17.018Z,9.1
2018-04-28T04:16:16.211Z,9.2
2018-04-28T04:17:15.124Z,9.2
2018-04-28T04:18:14.510Z,9.2
2018-04-28T04:19:13.416Z,9.2
2018-04-28T04:20:12.621Z,9.2
2018-04-28T04:21:11.932Z,9.2
2018-04-28T04:22:11.150Z,9.2
2018-04-28T04:23:10.252Z,9.2
2018-04-28T04:24:09.063Z,9.2
2018-04-28T04:25:08.370Z,9.2
2018-04-28T04:26:07.362Z,9.2
2018-04-28T04:27:06.577Z,9.2
2018-04-28T04:28:06.008Z,9.2
2018-04-28T04:29:04.835Z,9.2
2018-04-28T04:30:04.050Z,9.2
2018-04-28T04:31:03.362Z,9.2
2018-04-28T04:32:02.782Z,9.2
2018-04-28T04:32:33.313Z,9.2
2018-04-28T04:33:03.951Z,9.2
2018-04-28T04:34:00.750Z,9.2
2018-04-28T04:34:59.967Z,9.2
2018-04-28T04:35:59.461Z,9.2
2018-04-28T04:36:58.284Z,9.2
2018-04-28T04:37:56.979Z,9.2
2018-04-28T04:38:56.293Z,9.2
2018-04-28T04:39:55.727Z,9.2
2018-04-28T04:40:54.549Z,9.3
2018-04-28T04:41:53.865Z,9.3
2018-04-28T04:42:52.780Z,9.3
2018-04-28T04:43:52.099Z,9.3
2018-04-28T04:44:51.423Z,9.3
2018-04-28T04:45:50.639Z,9.4
2018-04-28T04:46:49.452Z,9.4
2018-04-28T04:47:48.879Z,9.4
2018-04-28T04:48:47.754Z,9.4
2018-04-28T04:49:47.047Z,9.4
2018-04-28T04:51:45.255Z,9.4
2018-04-28T04:52:44.577Z,9.4
2018-04-28T04:53:43.399Z,9.4
2018-04-28T04:54:42.824Z,9.4
2018-04-28T04:55:41.632Z,9.4
2018-04-28T04:56:40.843Z,9.4
2018-04-28T04:57:40.152Z,9.5
2018-04-28T04:58:39.358Z,9.5
2018-04-28T04:59:38.184Z,9.6
2018-04-28T05:00:37.386Z,9.6
2018-04-28T05:01:36.695Z,9.7
2018-04-28T05:02:35.912Z,9.8
2018-04-28T05:03:35.121Z,9.8
2018-04-28T05:04:34.038Z,9.9
2018-04-28T05:05:33.459Z,10
2018-04-28T05:06:32.383Z,10.1
2018-04-28T05:07:31.599Z,10.1
2018-04-28T05:08:30.686Z,10.2
2018-04-28T05:09:29.771Z,10.2
2018-04-28T05:10:29.079Z,10.2
2018-04-28T05:11:28.180Z,10.3
2018-04-28T05:12:26.880Z,10.4
2018-04-28T05:13:26.307Z,10.5
2018-04-28T05:14:25.539Z,10.5
2018-04-28T05:15:24.856Z,10.6
2018-04-28T05:16:23.674Z,10.7
2018-04-28T05:17:22.988Z,10.7
2018-04-28T05:18:21.797Z,10.8
2018-04-28T05:19:21.024Z,10.8
2018-04-28T05:21:19.724Z,10.9
2018-04-28T05:22:18.648Z,10.9
2018-04-28T05:23:17.753Z,10.9
2018-04-28T05:24:17.073Z,10.9
2018-04-28T05:25:16.389Z,11
2018-04-28T05:26:15.208Z,11
2018-04-28T05:27:14.593Z,11
2018-04-28T05:28:13.296Z,11.1
2018-04-28T05:30:11.780Z,11.1
2018-04-28T05:31:10.986Z,11.2
2018-04-28T05:33:09.186Z,11.2
2018-04-28T05:34:08.495Z,11.2
2018-04-28T05:35:07.705Z,11.3
2018-04-28T05:36:07.208Z,11.3
2018-04-28T05:37:06.039Z,11.3
2018-04-28T05:38:05.140Z,11.3
2018-04-28T05:39:04.455Z,11.3
2018-04-28T05:40:03.666Z,11.4
2018-04-28T05:42:01.974Z,11.5
2018-04-28T05:43:00.974Z,11.6
2018-04-28T05:43:59.975Z,11.7
2018-04-28T05:44:58.961Z,11.7
2018-04-28T05:45:58.278Z,11.7
2018-04-28T05:46:57.620Z,11.8
2018-04-28T05:48:55.711Z,11.8
2018-04-28T05:49:55.126Z,11.8
2018-04-28T05:51:53.335Z,11.8
2018-04-28T05:52:52.622Z,11.9
2018-04-28T05:53:52.034Z,11.9
2018-04-28T05:54:50.525Z,12
2018-04-28T05:55:50.247Z,12
2018-04-28T05:56:49.457Z,12
2018-04-28T05:57:48.736Z,12.1
2018-04-28T05:58:47.789Z,12.1
2018-04-28T05:59:46.505Z,12.2
2018-04-28T06:01:45.109Z,12.3
2018-04-28T06:02:44.312Z,12.3
2018-04-28T06:03:43.735Z,12.3
2018-04-28T06:04:42.547Z,12.3
2018-04-28T06:05:41.756Z,12.3
2018-04-28T06:06:40.962Z,12.3
2018-04-28T06:07:40.441Z,12.4
2018-04-28T06:08:39.251Z,12.4
2018-04-28T06:09:38.679Z,12.4
2018-04-28T06:11:36.992Z,12.5
2018-04-28T06:12:36.101Z,12.6
2018-04-28T06:13:34.920Z,12.7
2018-04-28T06:14:34.273Z,12.7
2018-04-28T06:15:33.700Z,12.8
2018-04-28T06:16:33.013Z,13
2018-04-28T06:17:31.723Z,13
2018-04-28T06:18:30.721Z,13
2018-04-28T06:19:30.539Z,13.1
2018-04-28T06:20:29.354Z,13.1
2018-04-28T06:21:28.463Z,13.2
2018-04-28T06:22:27.895Z,13.2
2018-04-28T06:24:26.002Z,13.4
2018-04-28T06:25:25.224Z,13.5
2018-04-28T06:26:24.430Z,13.5
2018-04-28T06:27:23.848Z,13.6
2018-04-28T06:28:23.167Z,13.6
2018-04-28T06:29:21.977Z,13.7
2018-04-28T06:31:20.572Z,13.8
2018-04-28T06:32:19.691Z,13.8
2018-04-28T06:33:19.010Z,14
2018-04-28T06:34:18.326Z,14.1
2018-04-28T06:35:17.258Z,14.1
2018-04-28T06:36:16.468Z,14.1
2018-04-28T06:37:15.793Z,14.1
2018-04-28T06:38:15.075Z,14.2
2018-04-28T06:39:13.900Z,14.2
2018-04-28T06:40:13.221Z,14.2
2018-04-28T06:41:12.720Z,14.3
2018-04-28T06:42:11.849Z,14.3
2018-04-28T06:43:11.059Z,14.3
2018-04-28T06:44:10.161Z,14.4
2018-04-28T06:45:09.379Z,14.4
2018-04-28T06:46:08.707Z,14.4
2018-04-28T06:47:07.698Z,14.5
2018-04-28T06:48:06.795Z,14.6
2018-04-28T06:49:06.010Z,14.7
2018-04-28T06:51:04.485Z,14.8
2018-04-28T06:52:03.952Z,14.8
2018-04-28T06:53:02.660Z,14.8
2018-04-28T06:54:01.946Z,14.9
2018-04-28T06:55:01.461Z,15
2018-04-28T06:56:00.678Z,15
2018-04-28T06:56:59.895Z,15
2018-04-28T06:57:59.109Z,15
2018-04-28T06:58:58.426Z,15
2018-04-28T06:59:57.863Z,15
2018-04-28T07:00:56.790Z,15.1
2018-04-28T07:01:56.010Z,15.1
2018-04-28T07:02:55.329Z,15.1
2018-04-28T07:03:54.546Z,15.1
2018-04-28T07:04:53.871Z,15.2
2018-04-28T07:05:24.392Z,15.2
2018-04-28T07:05:54.911Z,15.2
2018-04-28T07:06:25.431Z,15.2
2018-04-28T07:06:56.167Z,15.3
2018-04-28T07:07:51.134Z,15.3
2018-04-28T07:08:50.341Z,15.3
2018-04-28T07:09:49.763Z,15.3
2018-04-28T07:10:49.031Z,15.4
2018-04-28T07:12:47.438Z,15.4
2018-04-28T07:13:46.758Z,15.5
2018-04-28T07:14:46.302Z,15.4
2018-04-28T07:15:45.238Z,15.4
2018-04-28T07:16:44.551Z,15.4
2018-04-28T07:17:43.974Z,15.5
2018-04-28T07:18:42.779Z,15.5
2018-04-28T07:19:42.206Z,15.6
2018-04-28T07:20:41.523Z,15.6
2018-04-28T07:21:40.941Z,15.7
2018-04-28T07:22:39.652Z,15.7
2018-04-28T07:23:38.863Z,15.7
2018-04-28T07:24:38.187Z,15.7
2018-04-28T07:25:37.623Z,15.7
2018-04-28T07:26:36.828Z,15.7
2018-04-28T07:27:35.930Z,15.7
2018-04-28T07:28:35.245Z,15.7
2018-04-28T07:29:34.457Z,15.7
2018-04-28T07:30:33.574Z,15.7
2018-04-28T07:32:32.279Z,15.8
2018-04-28T07:33:31.589Z,15.9
2018-04-28T07:34:30.796Z,15.9
2018-04-28T07:35:30.226Z,15.9
2018-04-28T07:36:29.546Z,15.9
2018-04-28T07:37:28.763Z,15.9
2018-04-28T07:38:27.977Z,16
2018-04-28T07:39:26.973Z,16
2018-04-28T07:40:26.401Z,16
2018-04-28T07:41:25.617Z,16
2018-04-28T07:42:25.214Z,16
2018-04-28T07:43:24.419Z,16.1
2018-04-28T07:44:23.124Z,16.1
2018-04-28T07:45:22.832Z,16.1
2018-04-28T07:46:21.766Z,16.2
2018-04-28T07:47:21.163Z,16.2
2018-04-28T07:47:51.684Z,16.2
2018-04-28T07:48:22.099Z,16.3
2018-04-28T07:49:19.522Z,16.3
2018-04-28T07:50:18.945Z,16.4
2018-04-28T07:51:18.255Z,16.4
2018-04-28T07:52:17.474Z,16.5
2018-04-28T07:53:16.572Z,16.5
2018-04-28T07:54:15.781Z,16.5
2018-04-28T07:55:15.125Z,16.5
2018-04-28T07:56:14.544Z,16.5
2018-04-28T07:57:13.762Z,16.5
2018-04-28T07:58:13.181Z,16.5
2018-04-28T07:58:43.594Z,16.5
2018-04-28T07:59:14.199Z,16.5
2018-04-28T07:59:44.501Z,16.5
2018-04-28T08:01:10.777Z,16.5
2018-04-28T08:02:09.984Z,16.5
2018-04-28T08:03:09.302Z,16.5
2018-04-28T08:04:08.621Z,16.5
2018-04-28T08:05:07.944Z,16.6
2018-04-28T08:06:07.258Z,16.6
2018-04-28T08:07:06.706Z,16.6
2018-04-28T08:08:05.779Z,16.6
2018-04-28T08:09:04.781Z,16.6
2018-04-28T08:10:03.997Z,16.7
2018-04-28T08:11:03.202Z,16.7
2018-04-28T08:12:02.805Z,16.8
2018-04-28T08:13:02.010Z,16.8
2018-04-28T08:15:59.894Z,16.8
2018-04-28T08:16:59.101Z,16.8
2018-04-28T08:17:58.425Z,16.9
2018-04-28T08:18:57.625Z,17
2018-04-28T08:20:56.218Z,17.1
2018-04-28T08:21:55.637Z,17.1
2018-04-28T08:22:54.967Z,17.1
2018-04-28T08:23:54.062Z,17.2
2018-04-28T08:24:53.371Z,17.2
2018-04-28T08:25:52.688Z,17.2
2018-04-28T08:26:52.100Z,17.2
2018-04-28T08:27:50.815Z,17.2
2018-04-28T08:28:50.520Z,17.2
2018-04-28T08:29:49.845Z,17.2
2018-04-28T08:30:49.052Z,17.2
2018-04-28T08:31:48.472Z,17.1
2018-04-28T08:32:47.787Z,17.2
2018-04-28T08:33:47.001Z,17.2
2018-04-28T08:34:45.992Z,17.2
2018-04-28T08:36:44.590Z,17.3
2018-04-28T08:37:44.093Z,17.3
2018-04-28T08:38:43.457Z,17.3
2018-04-28T08:39:42.550Z,17.3
2018-04-28T08:40:41.757Z,17.4
2018-04-28T08:41:41.371Z,17.4
2018-04-28T08:42:40.585Z,17.3
2018-04-28T08:43:39.807Z,17.3
2018-04-28T08:45:38.821Z,17.3
2018-04-28T08:46:37.368Z,17.3
2018-04-28T08:47:36.962Z,17.3
2018-04-28T08:49:35.563Z,17.3
2018-04-28T08:51:34.155Z,17.3
2018-04-28T08:52:33.371Z,17.3
2018-04-28T08:53:32.689Z,17.3
2018-04-28T08:54:32.033Z,17.3
2018-04-28T08:55:31.255Z,17.3
2018-04-28T08:56:30.571Z,17.3
2018-04-28T08:57:29.791Z,17.4
2018-04-28T08:58:28.998Z,17.4
2018-04-28T08:59:28.325Z,17.4
2018-04-28T09:00:27.642Z,17.5
2018-04-28T09:01:27.352Z,17.5
2018-04-28T09:02:26.451Z,17.5
2018-04-28T09:03:25.555Z,17.6
2018-04-28T09:04:24.653Z,17.6
2018-04-28T09:05:24.260Z,17.6
2018-04-28T09:06:23.469Z,17.5
2018-04-28T09:07:22.791Z,17.5
2018-04-28T09:08:22.239Z,17.6
2018-04-28T09:09:21.566Z,17.6
2018-04-28T09:10:20.767Z,17.6
2018-04-28T09:11:19.970Z,17.6
2018-04-28T09:12:19.393Z,17.7
2018-04-28T09:13:18.812Z,17.7
2018-04-28T09:14:18.128Z,17.8
2018-04-28T09:15:17.051Z,17.8
2018-04-28T09:16:16.260Z,17.9
2018-04-28T09:17:16.083Z,17.9
2018-04-28T09:18:15.404Z,18
2018-04-28T09:19:14.603Z,18
2018-04-28T09:20:13.811Z,17.9
2018-04-28T09:21:13.256Z,17.9
2018-04-28T09:22:12.574Z,17.9
2018-04-28T09:23:11.892Z,17.9
2018-04-28T09:24:10.701Z,17.9
2018-04-28T09:25:10.539Z,17.9
2018-04-28T09:25:40.779Z,17.9
2018-04-28T09:26:11.453Z,17.9
2018-04-28T09:27:08.624Z,18
2018-04-28T09:28:08.335Z,18.1
2018-04-28T09:29:07.656Z,18.3
2018-04-28T09:30:06.970Z,18.3
2018-04-28T09:31:06.395Z,18.3
2018-04-28T09:32:05.617Z,18.2
2018-04-28T09:33:05.092Z,18.2
2018-04-28T09:34:04.329Z,18.1
2018-04-28T09:35:03.435Z,18.2
2018-04-28T09:36:02.535Z,18.2
2018-04-28T09:36:33.063Z,18.2
2018-04-28T09:37:03.308Z,18.2
2018-04-28T09:37:33.941Z,18.2
2018-04-28T09:38:04.478Z,18.1
2018-04-28T09:38:35.111Z,18.1
2018-04-28T09:39:05.753Z,18.1
2018-04-28T09:39:35.990Z,18.1
2018-04-28T09:40:59.395Z,18
2018-04-28T09:41:58.814Z,18.1
2018-04-28T09:42:57.738Z,18.2
2018-04-28T09:43:56.836Z,18.3
2018-04-28T09:44:56.447Z,18.4
2018-04-28T09:45:55.657Z,18.4
2018-04-28T09:46:54.871Z,18.4
2018-04-28T09:47:54.307Z,18.3
2018-04-28T09:48:53.910Z,18.4
2018-04-28T09:49:53.014Z,18.4
2018-04-28T09:50:52.335Z,18.4
2018-04-28T09:51:51.660Z,18.5
2018-04-28T09:52:50.866Z,18.6
2018-04-28T09:53:50.191Z,18.7
2018-04-28T09:54:49.401Z,18.8
2018-04-28T09:55:48.827Z,18.8
2018-04-28T09:56:48.437Z,18.8
2018-04-28T09:57:47.647Z,18.9
2018-04-28T09:58:47.078Z,18.9
2018-04-28T09:59:46.293Z,19
2018-04-28T10:00:45.624Z,19
2018-04-28T10:01:44.834Z,19
2018-04-28T10:03:43.550Z,18.9
2018-04-28T10:04:42.651Z,19
2018-04-28T10:05:42.082Z,19.1
2018-04-28T10:06:41.288Z,19
2018-04-28T10:07:41.110Z,18.9
2018-04-28T10:08:40.028Z,18.8
2018-04-28T10:09:39.449Z,18.9
2018-04-28T10:10:38.771Z,18.9
2018-04-28T10:11:37.986Z,18.9
2018-04-28T10:12:37.406Z,19
2018-04-28T10:13:36.875Z,19
2018-04-28T10:14:36.085Z,19.2
2018-04-28T10:15:35.410Z,19.2
2018-04-28T10:16:34.510Z,19.2
2018-04-28T10:17:33.903Z,19.2
2018-04-28T10:18:33.112Z,19.3
2018-04-28T10:19:32.529Z,19.3
2018-04-28T10:20:02.810Z,19.3
2018-04-28T10:20:33.221Z,19.3
2018-04-28T10:21:03.750Z,19.3
2018-04-28T10:21:34.279Z,19.3
2018-04-28T10:22:30.576Z,19.3
2018-04-28T10:23:30.000Z,19.4
2018-04-28T10:24:29.110Z,19.4
2018-04-28T10:26:28.212Z,19.4
2018-04-28T10:27:27.208Z,19.4
2018-04-28T10:28:26.930Z,19.3
2018-04-28T10:29:26.237Z,19.4
2018-04-28T10:31:24.941Z,19.5
2018-04-28T10:33:23.538Z,19.7
2018-04-28T10:34:22.752Z,19.7
2018-04-28T10:35:21.953Z,19.6
2018-04-28T10:37:21.052Z,19.6
2018-04-28T10:38:20.371Z,19.6
2018-04-28T10:40:18.962Z,19.5
2018-04-28T10:41:18.073Z,19.4
2018-04-28T10:42:17.782Z,19.5
2018-04-28T10:44:16.169Z,19.8
2018-04-28T10:45:15.268Z,19.8
2018-04-28T10:47:14.369Z,19.8
2018-04-28T10:49:13.070Z,19.7
2018-04-28T10:50:12.387Z,19.8
2018-04-28T10:52:11.191Z,19.8
2018-04-28T10:53:10.517Z,19.9
2018-04-28T10:55:09.221Z,19.9
2018-04-28T10:56:08.538Z,20
2018-04-28T10:57:07.862Z,19.9
2018-04-28T10:58:07.069Z,19.9
2018-04-28T10:59:06.285Z,19.9
2018-04-28T11:00:05.611Z,19.9
2018-04-28T11:01:05.431Z,19.8
2018-04-28T11:02:04.525Z,19.8
2018-04-28T11:03:03.620Z,19.9
2018-04-28T11:04:03.331Z,19.8
2018-04-28T11:05:02.543Z,19.9
2018-04-28T11:06:01.865Z,19.9
2018-04-28T11:07:01.081Z,20
2018-04-28T11:08:00.793Z,19.9
2018-04-28T11:09:00.223Z,19.9
2018-04-28T11:09:59.329Z,20
2018-04-28T11:11:58.138Z,20.3
2018-04-28T11:12:57.452Z,20.3
2018-04-28T11:13:56.773Z,20.4
2018-04-28T11:14:56.265Z,20.4
2018-04-28T11:15:55.577Z,20.5
2018-04-28T11:16:26.104Z,20.5
2018-04-28T11:16:56.518Z,20.4
2018-04-28T11:17:54.428Z,20.4
2018-04-28T11:18:53.849Z,20.4
2018-04-28T11:20:52.335Z,20.4
2018-04-28T11:21:51.547Z,20.2
2018-04-28T11:22:51.258Z,20.3
2018-04-28T11:23:50.359Z,20.2
2018-04-28T11:25:49.307Z,20.4
2018-04-28T11:26:48.581Z,20.3
2018-04-28T11:27:18.713Z,20.3
2018-04-28T11:27:49.336Z,20.4
2018-04-28T11:28:47.254Z,20.4
2018-04-28T11:29:46.571Z,20.4
2018-04-28T11:30:45.890Z,20.5
2018-04-28T11:31:45.630Z,20.4
2018-04-28T11:32:44.832Z,20.4
2018-04-28T11:33:44.267Z,20.4
2018-04-28T11:34:43.552Z,20.4
2018-04-28T11:35:42.870Z,20.4
2018-04-28T11:36:42.080Z,20.3
2018-04-28T11:37:41.915Z,20.4
2018-04-28T11:38:41.248Z,20.5
2018-04-28T11:39:40.671Z,20.3
2018-04-28T11:40:39.775Z,20.3
2018-04-28T11:41:39.395Z,20.3
2018-04-28T11:42:38.495Z,20.4
2018-04-28T11:43:38.482Z,20.5
2018-04-28T11:44:37.351Z,20.6
2018-04-28T11:45:36.554Z,20.6
2018-04-28T11:46:36.268Z,20.7
2018-04-28T11:47:35.496Z,20.8
2018-04-28T11:48:34.818Z,20.9
2018-04-28T11:49:34.640Z,21
2018-04-28T11:50:33.860Z,21.1
2018-04-28T11:51:33.184Z,21.2
2018-04-28T11:52:32.505Z,21.3
2018-04-28T11:53:31.928Z,21.3
2018-04-28T11:54:31.143Z,21.4
2018-04-28T11:55:30.901Z,21.5
2018-04-28T11:56:30.324Z,21.3
2018-04-28T11:57:29.641Z,21.2
2018-04-28T11:58:29.065Z,21.2
2018-04-28T11:59:28.483Z,21.3
2018-04-28T12:00:27.808Z,21.4
2018-04-28T12:01:27.126Z,21.5
2018-04-28T12:02:26.554Z,21.6
2018-04-28T12:03:26.161Z,21.6
2018-04-28T12:04:25.366Z,21.5
2018-04-28T12:05:24.861Z,21.5
2018-04-28T12:06:24.067Z,21.5
2018-04-28T12:07:23.400Z,21.5
2018-04-28T12:09:22.718Z,21.5
2018-04-28T12:10:21.933Z,21.6
2018-04-28T12:11:21.142Z,21.7
2018-04-28T12:12:20.975Z,21.7
2018-04-28T12:13:20.288Z,21.6
2018-04-28T12:14:19.492Z,21.7
2018-04-28T12:15:18.831Z,21.8
2018-04-28T12:16:18.331Z,21.9
2018-04-28T12:17:17.767Z,21.8
2018-04-28T12:18:16.976Z,21.7
2018-04-28T12:19:16.805Z,21.5
2018-04-28T12:20:16.150Z,21.4
2018-04-28T12:21:15.469Z,21.4
2018-04-28T12:22:15.203Z,21.3
2018-04-28T12:23:14.411Z,21.4
2018-04-28T12:24:13.617Z,21.5
2018-04-28T12:25:13.329Z,21.6
2018-04-28T12:26:12.540Z,21.7
2018-04-28T12:30:10.303Z,22.1
2018-04-28T12:31:09.515Z,22.1
2018-04-28T12:32:09.340Z,22
2018-04-28T12:33:08.659Z,22
2018-04-28T12:34:07.877Z,22.1
2018-04-28T12:35:07.314Z,22.3
2018-04-28T12:36:08.708Z,22.3
2018-04-28T12:37:06.305Z,22.3
2018-04-28T12:38:05.619Z,22.3
2018-04-28T12:39:05.451Z,22.2
2018-04-28T12:40:04.551Z,22.2
2018-04-28T12:41:03.871Z,22.3
2018-04-28T12:42:03.797Z,22.1
2018-04-28T12:43:03.005Z,22.1
2018-04-28T12:44:02.183Z,22.2
2018-04-28T12:45:01.900Z,22.2
2018-04-28T12:46:01.003Z,22.4
2018-04-28T12:47:00.722Z,22.4
2018-04-28T12:48:59.719Z,22.5
2018-04-28T12:49:58.928Z,22.5
2018-04-28T12:50:58.523Z,22.6
2018-04-28T12:51:57.841Z,22.6
2018-04-28T12:54:56.553Z,22.4
2018-04-28T12:55:55.763Z,22.4
2018-04-28T12:56:55.481Z,22.4
2018-04-28T12:58:54.254Z,22.6
2018-04-28T12:59:53.460Z,22.6
2018-04-28T13:00:53.302Z,22.4
2018-04-28T13:01:52.516Z,22.4
2018-04-28T13:02:51.724Z,22.4
2018-04-28T13:03:51.552Z,22.3
2018-04-28T13:04:51.040Z,22.1
2018-04-28T13:05:50.471Z,22.2
2018-04-28T13:06:49.567Z,22.2
2018-04-28T13:07:49.282Z,22
2018-04-28T13:08:48.487Z,22
2018-04-28T13:09:48.414Z,22
2018-04-28T13:10:47.855Z,22.2
2018-04-28T13:11:18.487Z,22.2
2018-04-28T13:11:49.006Z,22.3
2018-04-28T13:12:19.649Z,22.3
2018-04-28T13:12:50.301Z,22.5
2018-04-28T13:13:20.423Z,22.5
2018-04-28T13:14:45.401Z,22.7
2018-04-28T13:15:44.844Z,22.6
2018-04-28T13:16:44.212Z,22.6
2018-04-28T13:17:44.030Z,22.6
2018-04-28T13:18:43.453Z,22.5
2018-04-28T13:19:42.886Z,22.5
2018-04-28T13:20:42.001Z,22.6
2018-04-28T13:21:41.825Z,22.8
2018-04-28T13:22:41.352Z,22.9
2018-04-28T13:23:11.709Z,22.9
2018-04-28T13:23:42.235Z,22.9
2018-04-28T13:24:12.654Z,22.9
2018-04-28T13:24:43.170Z,23
2018-04-28T13:26:38.849Z,23.3
2018-04-28T13:27:38.272Z,23
2018-04-28T13:28:37.966Z,23.2
2018-04-28T13:29:36.998Z,23.3
2018-04-28T13:30:36.925Z,23
2018-04-28T13:31:36.020Z,23.1
2018-04-28T13:32:35.847Z,23.1
2018-04-28T13:33:35.163Z,23
2018-04-28T13:34:34.479Z,23
2018-04-28T13:35:34.312Z,23
2018-04-28T13:36:33.520Z,23
2018-04-28T13:37:32.942Z,22.9
2018-04-28T13:38:32.550Z,23
2018-04-28T13:39:32.159Z,23.1
2018-04-28T13:40:31.260Z,23.2
2018-04-28T13:41:30.869Z,23.3
2018-04-28T13:42:30.580Z,23.4
2018-04-28T13:43:29.579Z,23.3
2018-04-28T13:44:29.561Z,23.4
2018-04-28T13:45:28.995Z,23.3
2018-04-28T13:46:28.306Z,23.3
2018-04-28T13:48:27.403Z,22.9